createdAt,value
2023-05-18T00:00:53.899Z,99742.03
2023-05-18T00:03:41.387Z,99744.69
2023-05-18T00:06:28.220Z,99716.56
2023-05-18T00:09:14.738Z,99723.38
2023-05-18T00:12:02.260Z,99742.53
2023-05-18T00:14:48.462Z,99731.75
2023-05-18T00:17:34.727Z,99699.56
2023-05-18T00:20:22.164Z,99693.28
2023-05-18T00:23:10.614Z,99698.81
2023-05-18T00:25:58.192Z,99724.09
2023-05-18T00:28:44.499Z,99706.81
2023-05-18T00:31:30.940Z,99716.84
2023-05-18T00:34:17.279Z,99700.88
2023-05-18T00:37:03.920Z,99712.31
2023-05-18T00:39:50.430Z,99727.63
2023-05-18T00:42:36.829Z,99666.31
2023-05-18T00:45:23.210Z,99722.50
2023-05-18T00:48:09.538Z,99700.94
2023-05-18T00:50:55.981Z,99713.88
2023-05-18T00:53:44.251Z,99725.69
2023-05-18T00:56:34.009Z,99680.09
2023-05-18T00:59:20.124Z,99660.84
2023-05-18T01:02:09.685Z,99655.91
2023-05-18T01:04:56.435Z,99712.19
2023-05-18T01:07:43.342Z,99668.41
2023-05-18T01:10:36.777Z,99673.16
2023-05-18T01:13:38.964Z,99681.28
2023-05-18T01:16:34.250Z,99713.06
2023-05-18T01:19:39.136Z,99723.97
2023-05-18T01:22:56.596Z,99726.66
2023-05-18T01:25:50.135Z,99730.03
2023-05-18T01:28:36.739Z,99716.09
2023-05-18T01:31:23.587Z,99723.03
2023-05-18T01:34:09.861Z,99692.38
2023-05-18T01:36:56.592Z,99702.69
2023-05-18T01:39:43.386Z,99718.66
2023-05-18T01:42:31.027Z,99647.75
2023-05-18T01:45:26.277Z,99719.88
2023-05-18T01:48:21.241Z,99692.00
2023-05-18T01:51:11.148Z,99643.34
2023-05-18T01:54:03.070Z,99683.22
2023-05-18T01:56:52.549Z,99674.28
2023-05-18T01:59:39.634Z,99703.44
2023-05-18T02:02:27.018Z,99624.75
2023-05-18T02:05:13.461Z,99665.84
2023-05-18T02:08:00.109Z,99728.63
2023-05-18T02:10:46.923Z,99663.72
2023-05-18T02:13:33.122Z,99682.06
2023-05-18T02:16:19.990Z,99703.84
2023-05-18T02:19:06.650Z,99721.69
2023-05-18T02:21:53.192Z,99678.09
2023-05-18T02:24:39.495Z,99705.81
2023-05-18T02:27:25.931Z,99722.44
2023-05-18T02:30:15.753Z,99708.28
2023-05-18T02:33:04.499Z,99710.97
2023-05-18T02:35:52.204Z,99697.72
2023-05-18T02:38:43.497Z,99719.72
2023-05-18T02:41:31.042Z,99704.25
2023-05-18T02:44:17.468Z,99676.84
2023-05-18T02:47:04.042Z,99671.34
2023-05-18T02:49:51.630Z,99665.91
2023-05-18T02:52:38.646Z,99680.53
2023-05-18T02:55:25.315Z,99676.38
2023-05-18T02:58:33.491Z,99682.66
2023-05-18T03:01:29.678Z,99671.59
2023-05-18T03:04:16.981Z,99683.81
2023-05-18T03:07:08.130Z,99711.69
2023-05-18T03:09:54.539Z,99670.19
2023-05-18T03:12:41.165Z,99674.09
2023-05-18T03:15:27.599Z,99675.56
2023-05-18T03:18:14.357Z,99676.09
2023-05-18T03:21:02.173Z,99678.53
2023-05-18T03:23:49.689Z,99697.56
2023-05-18T03:26:38.754Z,99705.19
2023-05-18T03:29:25.429Z,99637.16
2023-05-18T03:32:12.175Z,99671.88
2023-05-18T03:35:00.984Z,99683.84
2023-05-18T03:37:48.082Z,99687.88
2023-05-18T03:40:34.803Z,99697.59
2023-05-18T03:43:21.517Z,99683.50
2023-05-18T03:46:08.445Z,99648.38
2023-05-18T03:48:54.938Z,99649.63
2023-05-18T03:51:48.911Z,99701.94
2023-05-18T03:54:35.655Z,99689.50
2023-05-18T03:57:22.454Z,99708.00
2023-05-18T04:00:11.726Z,99688.00
2023-05-18T04:03:03.547Z,99705.59
2023-05-18T04:05:51.836Z,99693.72
2023-05-18T04:08:38.274Z,99673.41
2023-05-18T04:11:27.165Z,99711.31
2023-05-18T04:14:14.232Z,99693.84
2023-05-18T04:17:05.028Z,99655.03
2023-05-18T04:19:51.641Z,99663.88
2023-05-18T04:22:48.094Z,99732.41
2023-05-18T04:25:34.558Z,99692.19
2023-05-18T04:28:21.516Z,99741.59
2023-05-18T04:31:08.029Z,99699.84
2023-05-18T04:33:55.007Z,99715.66
2023-05-18T04:36:42.772Z,99738.66
2023-05-18T04:39:29.349Z,99711.88
2023-05-18T04:42:18.477Z,99721.09
2023-05-18T04:45:05.928Z,99745.63
2023-05-18T04:47:54.227Z,99731.53
2023-05-18T04:50:42.115Z,99719.72
2023-05-18T04:53:28.978Z,99733.28
2023-05-18T04:56:15.119Z,99735.53
2023-05-18T04:59:02.597Z,99705.84
2023-05-18T05:01:49.161Z,99738.75
2023-05-18T05:04:35.696Z,99753.00
2023-05-18T05:07:22.483Z,99736.19
2023-05-18T05:10:09.388Z,99717.50
2023-05-18T05:12:55.983Z,99741.91
2023-05-18T05:15:43.847Z,99733.78
2023-05-18T05:18:30.496Z,99750.88
2023-05-18T05:21:16.793Z,99748.78
2023-05-18T05:24:05.052Z,99732.53
2023-05-18T05:26:52.060Z,99717.88
2023-05-18T05:29:39.576Z,99732.63
2023-05-18T05:32:26.029Z,99722.44
2023-05-18T05:35:12.837Z,99724.09
2023-05-18T05:38:00.567Z,99752.75
2023-05-18T05:40:47.455Z,99726.75
2023-05-18T05:43:33.766Z,99731.06
2023-05-18T05:46:21.190Z,99688.63
2023-05-18T05:49:07.660Z,99733.59
2023-05-18T05:51:54.005Z,99711.41
2023-05-18T05:54:41.508Z,99701.66
2023-05-18T05:57:29.076Z,99742.25
2023-05-18T06:00:15.754Z,99745.25
2023-05-18T06:03:08.376Z,99740.84
2023-05-18T06:06:02.476Z,99726.63
2023-05-18T06:08:49.206Z,99739.66
2023-05-18T06:11:37.279Z,99722.28
2023-05-18T06:14:23.927Z,99745.69
2023-05-18T06:17:11.651Z,99756.38
2023-05-18T06:19:58.368Z,99746.69
2023-05-18T06:22:45.772Z,99704.22
2023-05-18T06:25:56.339Z,99720.66
2023-05-18T06:29:01.250Z,99754.81
2023-05-18T06:32:09.032Z,99715.34
2023-05-18T06:35:03.837Z,99725.13
2023-05-18T06:37:49.960Z,99747.91
2023-05-18T06:40:36.403Z,99754.16
2023-05-18T06:43:22.762Z,99733.34
2023-05-18T06:46:22.045Z,99708.47
2023-05-18T06:49:12.181Z,99695.47
2023-05-18T06:51:59.319Z,99721.53
2023-05-18T06:54:46.091Z,99685.88
2023-05-18T06:57:33.872Z,99675.53
2023-05-18T07:00:20.843Z,99691.28
2023-05-18T07:03:08.300Z,99677.34
2023-05-18T07:05:54.575Z,99701.69
2023-05-18T07:08:41.088Z,99718.19
2023-05-18T07:11:29.600Z,99696.59
2023-05-18T07:14:16.372Z,99714.09
2023-05-18T07:17:02.897Z,99761.03
2023-05-18T07:19:49.419Z,99720.38
2023-05-18T07:22:36.251Z,99735.94
2023-05-18T07:25:23.105Z,99759.38
2023-05-18T07:28:09.789Z,99739.47
2023-05-18T07:30:56.025Z,99705.66
2023-05-18T07:33:44.454Z,99730.00
2023-05-18T07:36:31.189Z,99737.88
2023-05-18T07:39:19.694Z,99720.53
2023-05-18T07:42:06.650Z,99725.84
2023-05-18T07:44:53.573Z,99743.09
2023-05-18T07:47:40.633Z,99742.22
2023-05-18T07:50:29.464Z,99724.88
2023-05-18T07:53:16.283Z,99746.38
2023-05-18T07:56:04.039Z,99743.94
2023-05-18T07:58:50.484Z,99713.72
2023-05-18T08:01:38.396Z,99730.19
2023-05-18T08:04:25.197Z,99709.41
2023-05-18T08:07:12.624Z,99714.63
2023-05-18T08:09:58.957Z,99707.72
2023-05-18T08:12:45.799Z,99724.16
2023-05-18T08:15:32.379Z,99709.44
2023-05-18T08:18:19.103Z,99706.84
2023-05-18T08:21:08.105Z,99693.00
2023-05-18T08:23:55.053Z,99729.34
2023-05-18T08:26:41.289Z,99712.88
2023-05-18T08:29:27.829Z,99684.31
2023-05-18T08:32:14.254Z,99728.47
2023-05-18T08:35:00.839Z,99708.56
2023-05-18T08:37:47.396Z,99679.13
2023-05-18T08:40:40.100Z,99705.94
2023-05-18T08:43:33.205Z,99691.22
2023-05-18T08:46:33.262Z,99704.16
2023-05-18T08:49:21.671Z,99699.88
2023-05-18T08:52:08.845Z,99696.34
2023-05-18T08:55:00.003Z,99678.13
2023-05-18T08:57:56.311Z,99674.66
2023-05-18T09:00:43.003Z,99680.63
2023-05-18T09:03:31.492Z,99676.09
2023-05-18T09:06:19.288Z,99627.19
2023-05-18T09:09:06.596Z,99659.19
2023-05-18T09:11:56.386Z,99679.06
2023-05-18T09:14:43.458Z,99678.94
2023-05-18T09:17:29.744Z,99670.78
2023-05-18T09:20:16.819Z,99668.13
2023-05-18T09:23:03.489Z,99660.25
2023-05-18T09:25:52.373Z,99685.59
2023-05-18T09:28:38.629Z,99675.09
2023-05-18T09:31:26.638Z,99660.56
2023-05-18T09:34:14.276Z,99687.41
2023-05-18T09:37:00.732Z,99664.38
2023-05-18T09:39:59.993Z,99683.28
2023-05-18T09:42:47.088Z,99648.75
2023-05-18T09:45:33.624Z,99662.16
2023-05-18T09:48:22.754Z,99648.53
2023-05-18T09:51:16.213Z,99670.28
2023-05-18T09:54:05.848Z,99671.63
2023-05-18T09:57:05.910Z,99647.09
2023-05-18T10:00:10.998Z,99648.41
2023-05-18T10:02:57.458Z,99659.41
2023-05-18T10:05:44.054Z,99629.00
2023-05-18T10:08:30.555Z,99659.22
2023-05-18T10:11:20.145Z,99647.38
2023-05-18T10:14:06.413Z,99651.38
2023-05-18T10:17:00.379Z,99625.38
2023-05-18T10:19:55.757Z,99655.41
2023-05-18T10:22:44.788Z,99629.41
2023-05-18T10:25:33.381Z,99619.56
2023-05-18T10:28:27.651Z,99624.97
2023-05-18T10:31:16.597Z,99644.84
2023-05-18T10:34:03.849Z,99625.47
2023-05-18T10:36:50.590Z,99631.03
2023-05-18T10:39:37.260Z,99633.94
2023-05-18T10:42:26.020Z,99637.78
2023-05-18T10:45:12.692Z,99623.81
2023-05-18T10:48:01.593Z,99648.19
2023-05-18T10:50:53.824Z,99639.44
2023-05-18T10:53:43.769Z,99627.47
2023-05-18T10:56:30.459Z,99644.91
2023-05-18T10:59:18.502Z,99634.06
2023-05-18T11:02:05.138Z,99609.47
2023-05-18T11:04:54.268Z,99608.22
2023-05-18T11:07:44.903Z,99626.06
2023-05-18T11:10:38.759Z,99606.94
2023-05-18T11:13:29.174Z,99619.06
2023-05-18T11:16:16.882Z,99610.22
2023-05-18T11:19:07.960Z,99620.59
2023-05-18T11:21:54.509Z,99590.84
2023-05-18T11:24:41.676Z,99604.53
2023-05-18T11:27:28.867Z,99600.47
2023-05-18T11:30:28.410Z,99608.91
2023-05-18T11:33:30.421Z,99584.50
2023-05-18T11:36:23.264Z,99608.00
2023-05-18T11:39:11.460Z,99582.75
2023-05-18T11:42:09.778Z,99580.72
2023-05-18T11:44:56.165Z,99582.94
2023-05-18T11:47:42.542Z,99579.66
2023-05-18T11:50:31.603Z,99590.81
2023-05-18T11:53:18.717Z,99591.34
2023-05-18T11:56:05.788Z,99588.13
2023-05-18T11:59:12.446Z,99602.75
2023-05-18T12:02:01.287Z,99585.91
2023-05-18T12:04:53.420Z,99595.28
2023-05-18T12:07:41.311Z,99570.16
2023-05-18T12:10:28.407Z,99579.47
2023-05-18T12:13:17.564Z,99585.19
2023-05-18T12:16:05.124Z,99573.84
2023-05-18T12:18:51.962Z,99580.00
2023-05-18T12:21:38.761Z,99574.88
2023-05-18T12:24:24.942Z,99557.22
2023-05-18T12:27:12.310Z,99556.63
2023-05-18T12:29:59.001Z,99584.47
2023-05-18T12:32:52.808Z,99556.00
2023-05-18T12:35:40.418Z,99575.28
2023-05-18T12:38:27.831Z,99559.84
2023-05-18T12:41:22.782Z,99521.56
2023-05-18T12:44:09.013Z,99531.38
2023-05-18T12:46:55.897Z,99538.94
2023-05-18T12:49:49.335Z,99501.28
2023-05-18T12:52:35.585Z,99556.13
2023-05-18T12:55:22.338Z,99540.44
2023-05-18T12:58:18.460Z,99543.97
2023-05-18T13:01:10.548Z,99558.34
2023-05-18T13:04:00.513Z,99549.44
2023-05-18T13:06:48.421Z,99555.50
2023-05-18T13:09:34.838Z,99522.38
2023-05-18T13:12:47.020Z,99536.56
2023-05-18T13:15:37.889Z,99559.63
2023-05-18T13:18:24.250Z,99560.09
2023-05-18T13:21:11.430Z,99533.47
2023-05-18T13:23:58.255Z,99547.09
2023-05-18T13:26:44.671Z,99528.44
2023-05-18T13:29:30.872Z,99554.31
2023-05-18T13:32:17.238Z,99552.44
2023-05-18T13:35:05.397Z,99550.31
2023-05-18T13:37:52.288Z,99548.22
2023-05-18T13:40:39.263Z,99548.00
2023-05-18T13:43:25.946Z,99548.44
2023-05-18T13:46:13.251Z,99525.78
2023-05-18T13:48:59.446Z,99522.56
2023-05-18T13:51:45.841Z,99531.19
2023-05-18T13:54:32.252Z,99537.56
2023-05-18T13:57:18.748Z,99526.63
2023-05-18T14:00:10.440Z,99528.44
2023-05-18T14:02:59.853Z,99510.72
2023-05-18T14:05:46.604Z,99516.16
2023-05-18T14:08:33.178Z,99518.84
2023-05-18T14:11:19.769Z,99475.59
2023-05-18T14:14:06.077Z,99518.88
2023-05-18T14:16:52.311Z,99513.63
2023-05-18T14:19:39.364Z,99513.13
2023-05-18T14:22:30.448Z,99456.41
2023-05-18T14:25:17.246Z,99503.94
2023-05-18T14:28:03.799Z,99480.59
2023-05-18T14:30:50.423Z,99492.47
2023-05-18T14:33:36.864Z,99489.56
2023-05-18T14:36:23.318Z,99471.69
2023-05-18T14:39:09.886Z,99466.75
2023-05-18T14:41:56.676Z,99486.66
2023-05-18T14:44:42.854Z,99481.91
2023-05-18T14:47:29.477Z,99482.38
2023-05-18T14:50:16.575Z,99481.28
2023-05-18T14:53:02.801Z,99452.94
2023-05-18T14:55:49.555Z,99460.81
2023-05-18T14:58:36.192Z,99459.69
2023-05-18T15:01:22.800Z,99483.94
2023-05-18T15:04:09.246Z,99478.97
2023-05-18T15:06:56.033Z,99461.63
2023-05-18T15:09:42.436Z,99459.16
2023-05-18T15:12:29.038Z,99445.00
2023-05-18T15:15:15.572Z,99462.31
2023-05-18T15:18:02.241Z,99474.84
2023-05-18T15:20:48.702Z,99480.06
2023-05-18T15:23:35.147Z,99493.53
2023-05-18T15:26:22.184Z,99467.41
2023-05-18T15:29:08.938Z,99473.97
2023-05-18T15:31:55.967Z,99471.53
2023-05-18T15:34:42.497Z,99467.69
2023-05-18T15:37:28.744Z,99443.53
2023-05-18T15:40:17.309Z,99470.00
2023-05-18T15:43:03.977Z,99470.88
2023-05-18T15:45:50.715Z,99475.06
2023-05-18T15:48:37.260Z,99481.50
2023-05-18T15:51:24.050Z,99485.50
2023-05-18T15:54:10.524Z,99480.63
2023-05-18T15:56:56.989Z,99450.03
2023-05-18T15:59:43.732Z,99446.25
2023-05-18T16:02:30.517Z,99460.25
2023-05-18T16:05:16.718Z,99472.97
2023-05-18T16:08:03.185Z,99462.22
2023-05-18T16:10:49.853Z,99460.44
2023-05-18T16:13:36.383Z,99457.69
2023-05-18T16:16:23.060Z,99459.06
2023-05-18T16:19:09.926Z,99466.41
2023-05-18T16:21:56.760Z,99445.00
2023-05-18T16:24:43.584Z,99460.81
2023-05-18T16:27:30.062Z,99429.41
2023-05-18T16:30:16.367Z,99472.91
2023-05-18T16:33:02.719Z,99471.97
2023-05-18T16:35:49.353Z,99475.72
2023-05-18T16:38:37.260Z,99456.91
2023-05-18T16:41:23.789Z,99424.44
2023-05-18T16:44:10.097Z,99475.81
2023-05-18T16:46:56.705Z,99474.41
2023-05-18T16:49:46.098Z,99462.28
2023-05-18T16:52:32.434Z,99474.16
2023-05-18T16:55:19.566Z,99465.66
2023-05-18T16:58:06.018Z,99487.69
2023-05-18T17:00:53.380Z,99472.13
2023-05-18T17:03:42.292Z,99443.91
2023-05-18T17:06:28.871Z,99468.50
2023-05-18T17:09:16.397Z,99475.59
2023-05-18T17:12:03.422Z,99459.81
2023-05-18T17:14:51.937Z,99461.41
2023-05-18T17:17:41.305Z,99445.63
2023-05-18T17:20:28.393Z,99465.63
2023-05-18T17:23:18.617Z,99482.28
2023-05-18T17:26:06.353Z,99436.69
2023-05-18T17:28:53.558Z,99486.47
2023-05-18T17:31:39.971Z,99463.34
2023-05-18T17:34:26.967Z,99477.94
2023-05-18T17:37:13.396Z,99477.84
2023-05-18T17:39:59.948Z,99456.47
2023-05-18T17:42:46.513Z,99479.88
2023-05-18T17:45:32.861Z,99468.56
2023-05-18T17:48:19.421Z,99450.56
2023-05-18T17:51:07.398Z,99480.84
2023-05-18T17:53:55.549Z,99485.34
2023-05-18T17:56:41.959Z,99478.75
2023-05-18T17:59:28.671Z,99444.25
2023-05-18T18:02:15.356Z,99490.06
2023-05-18T18:05:01.525Z,99466.78
2023-05-18T18:07:47.859Z,99485.09
2023-05-18T18:10:34.844Z,99474.66
2023-05-18T18:13:21.405Z,99405.75
2023-05-18T18:16:07.935Z,99456.72
2023-05-18T18:18:54.613Z,99451.53
2023-05-18T18:21:41.033Z,99466.94
2023-05-18T18:24:27.552Z,99475.09
2023-05-18T18:27:13.993Z,99458.00
2023-05-18T18:30:00.265Z,99488.41
2023-05-18T18:32:46.676Z,99492.13
2023-05-18T18:35:33.169Z,99466.50
2023-05-18T18:38:19.755Z,99492.63
2023-05-18T18:41:06.145Z,99498.09
2023-05-18T18:43:54.649Z,99493.91
2023-05-18T18:46:41.387Z,99497.31
2023-05-18T18:49:28.091Z,99501.97
2023-05-18T18:52:14.625Z,99501.28
2023-05-18T18:55:01.338Z,99505.72
2023-05-18T18:57:48.125Z,99499.09
2023-05-18T19:00:34.944Z,99503.59
2023-05-18T19:03:21.799Z,99467.41
2023-05-18T19:06:08.037Z,99520.28
2023-05-18T19:08:54.769Z,99464.06
2023-05-18T19:11:41.341Z,99523.03
2023-05-18T19:14:27.747Z,99492.03
2023-05-18T19:17:14.085Z,99498.22
2023-05-18T19:20:00.320Z,99469.91
2023-05-18T19:22:46.656Z,99539.00
2023-05-18T19:25:33.503Z,99538.13
2023-05-18T19:28:20.341Z,99506.22
2023-05-18T19:31:10.226Z,99525.19
2023-05-18T19:33:59.513Z,99545.88
2023-05-18T19:36:45.937Z,99538.97
2023-05-18T19:39:32.110Z,99538.97
2023-05-18T19:42:18.821Z,99523.44
2023-05-18T19:45:05.817Z,99526.00
2023-05-18T19:47:52.315Z,99529.56
2023-05-18T19:50:38.942Z,99541.72
2023-05-18T19:53:25.360Z,99555.59
2023-05-18T19:56:12.030Z,99549.56
2023-05-18T19:58:58.311Z,99496.06
2023-05-18T20:01:44.508Z,99540.16
2023-05-18T20:04:31.545Z,99515.19
2023-05-18T20:07:17.981Z,99533.38
2023-05-18T20:10:06.635Z,99504.91
2023-05-18T20:12:52.809Z,99575.00
2023-05-18T20:15:39.409Z,99577.63
2023-05-18T20:18:26.142Z,99570.81
2023-05-18T20:21:12.749Z,99555.34
2023-05-18T20:23:59.245Z,99555.38
2023-05-18T20:26:45.851Z,99580.47
2023-05-18T20:29:32.505Z,99585.66
2023-05-18T20:32:18.897Z,99576.16
2023-05-18T20:35:05.830Z,99587.38
2023-05-18T20:37:55.831Z,99574.41
2023-05-18T20:40:44.101Z,99582.22
2023-05-18T20:43:31.771Z,99579.63
2023-05-18T20:46:24.644Z,99568.34
2023-05-18T20:49:12.778Z,99575.28
2023-05-18T20:51:59.021Z,99588.28
2023-05-18T20:54:46.017Z,99536.34
2023-05-18T20:57:32.362Z,99577.91
2023-05-18T21:00:19.915Z,99586.53
2023-05-18T21:03:06.073Z,99588.28
2023-05-18T21:05:52.727Z,99543.28
2023-05-18T21:08:39.396Z,99544.13
2023-05-18T21:11:26.153Z,99555.41
2023-05-18T21:14:12.771Z,99527.69
2023-05-18T21:16:59.471Z,99577.88
2023-05-18T21:19:45.948Z,99537.19
2023-05-18T21:22:32.627Z,99565.72
2023-05-18T21:25:19.634Z,99591.66
2023-05-18T21:28:06.314Z,99550.09
2023-05-18T21:30:53.931Z,99567.41
2023-05-18T21:33:41.769Z,99567.38
2023-05-18T21:36:35.071Z,99566.50
2023-05-18T21:39:21.320Z,99534.44
2023-05-18T21:42:08.218Z,99549.09
2023-05-18T21:44:54.470Z,99566.41
2023-05-18T21:47:40.980Z,99584.47
2023-05-18T21:50:27.649Z,99560.06
2023-05-18T21:53:14.003Z,99583.38
2023-05-18T21:56:00.854Z,99584.91
2023-05-18T21:58:47.060Z,99576.97
2023-05-18T22:01:33.417Z,99591.53
2023-05-18T22:04:19.794Z,99524.69
2023-05-18T22:07:06.180Z,99586.09
2023-05-18T22:09:53.635Z,99596.34
2023-05-18T22:12:41.819Z,99594.63
2023-05-18T22:15:28.343Z,99581.53
2023-05-18T22:18:15.074Z,99582.63
2023-05-18T22:21:01.530Z,99590.44
2023-05-18T22:23:47.732Z,99583.44
2023-05-18T22:26:34.232Z,99557.50
2023-05-18T22:29:20.849Z,99596.53
2023-05-18T22:32:07.827Z,99580.16
2023-05-18T22:34:55.706Z,99559.44
2023-05-18T22:37:42.210Z,99595.03
2023-05-18T22:40:28.746Z,99592.41
2023-05-18T22:43:15.069Z,99590.59
2023-05-18T22:46:01.863Z,99566.34
2023-05-18T22:48:48.212Z,99568.81
2023-05-18T22:51:35.581Z,99563.66
2023-05-18T22:54:22.058Z,99573.84
2023-05-18T22:57:08.632Z,99555.63
2023-05-18T22:59:54.990Z,99570.16
2023-05-18T23:02:42.501Z,99586.47
2023-05-18T23:05:28.971Z,99582.88
2023-05-18T23:08:16.012Z,99542.88
2023-05-18T23:11:03.623Z,99581.00
2023-05-18T23:13:51.229Z,99554.88
2023-05-18T23:16:40.277Z,99549.56
2023-05-18T23:19:27.065Z,99578.16
2023-05-18T23:22:13.314Z,99582.41
2023-05-18T23:24:59.757Z,99570.22
2023-05-18T23:27:46.154Z,99584.03
2023-05-18T23:30:32.791Z,99582.19
2023-05-18T23:33:19.923Z,99533.66
2023-05-18T23:36:07.304Z,99586.38
2023-05-18T23:38:59.002Z,99588.13
2023-05-18T23:41:46.206Z,99571.47
2023-05-18T23:44:32.750Z,99585.22
2023-05-18T23:47:19.427Z,99573.19
2023-05-18T23:50:06.580Z,99567.81
2023-05-18T23:52:54.204Z,99538.41
2023-05-18T23:55:41.771Z,99539.97
2023-05-18T23:58:31.427Z,99572.78
